sensor_id;sensor_type;location;lat;lon;timestamp;pressure;altitude;pressure_sealevel;temperature;humidity
76050;BME280;64967;50.234;19.224;2023-04-03T00:00:49;98796.13;;;1.12;100.00
76050;BME280;64967;50.234;19.224;2023-04-03T00:03:17;98796.41;;;1.19;100.00
76050;BME280;64967;50.234;19.224;2023-04-03T00:05:52;98756.19;;;1.03;100.00
76050;BME280;64967;50.234;19.224;2023-04-03T00:08:40;98801.47;;;1.22;100.00
76050;BME280;64967;50.234;19.224;2023-04-03T00:11:25;98787.75;;;1.17;100.00
76050;BME280;64967;50.234;19.224;2023-04-03T00:14:08;98801.31;;;1.23;100.00
76050;BME280;64967;50.234;19.224;2023-04-03T00:17:04;98803.03;;;1.24;100.00
76050;BME280;64967;50.234;19.224;2023-04-03T00:19:51;98784.47;;;1.13;100.00
76050;BME280;64967;50.234;19.224;2023-04-03T00:22:34;98792.78;;;1.20;100.00
76050;BME280;64967;50.234;19.224;2023-04-03T00:25:01;98810.88;;;1.26;100.00
76050;BME280;64967;50.234;19.224;2023-04-03T00:27:28;98787.88;;;1.25;100.00
76050;BME280;64967;50.234;19.224;2023-04-03T00:29:55;98784.34;;;1.15;99.83
76050;BME280;64967;50.234;19.224;2023-04-03T00:32:22;98808.63;;;1.31;99.93
76050;BME280;64967;50.234;19.224;2023-04-03T00:34:49;98804.13;;;1.31;99.58
76050;BME280;64967;50.234;19.224;2023-04-03T00:37:16;98807.09;;;1.38;100.00
76050;BME280;64967;50.234;19.224;2023-04-03T00:39:43;98809.34;;;1.33;99.32
76050;BME280;64967;50.234;19.224;2023-04-03T00:42:10;98797.81;;;1.23;99.69
76050;BME280;64967;50.234;19.224;2023-04-03T00:47:06;98808.47;;;1.23;99.40
76050;BME280;64967;50.234;19.224;2023-04-03T00:49:36;98786.47;;;1.11;99.50
76050;BME280;64967;50.234;19.224;2023-04-03T00:52:05;98793.03;;;1.07;99.37
76050;BME280;64967;50.234;19.224;2023-04-03T00:54:37;98774.38;;;0.98;99.99
76050;BME280;64967;50.234;19.224;2023-04-03T00:57:05;98795.94;;;1.04;100.00
76050;BME280;64967;50.234;19.224;2023-04-03T00:59:38;98811.69;;;1.07;100.00
76050;BME280;64967;50.234;19.224;2023-04-03T01:02:06;98803.91;;;0.95;100.00
76050;BME280;64967;50.234;19.224;2023-04-03T01:07:29;98818.78;;;0.97;100.00
76050;BME280;64967;50.234;19.224;2023-04-03T01:10:22;98817.66;;;1.00;100.00
76050;BME280;64967;50.234;19.224;2023-04-03T01:13:24;98822.44;;;1.06;100.00
76050;BME280;64967;50.234;19.224;2023-04-03T01:16:13;98829.91;;;1.12;100.00
76050;BME280;64967;50.234;19.224;2023-04-03T01:18:54;98826.66;;;0.99;100.00
76050;BME280;64967;50.234;19.224;2023-04-03T01:21:54;98827.75;;;0.96;100.00
76050;BME280;64967;50.234;19.224;2023-04-03T01:24:32;98835.16;;;0.93;100.00
76050;BME280;64967;50.234;19.224;2023-04-03T01:27:03;98828.16;;;0.92;100.00
76050;BME280;64967;50.234;19.224;2023-04-03T01:29:30;98817.06;;;0.86;100.00
76050;BME280;64967;50.234;19.224;2023-04-03T01:31:59;98816.31;;;0.75;100.00
76050;BME280;64967;50.234;19.224;2023-04-03T01:34:28;98836.09;;;0.82;100.00
76050;BME280;64967;50.234;19.224;2023-04-03T01:36:56;98840.31;;;0.84;100.00
76050;BME280;64967;50.234;19.224;2023-04-03T01:39:23;98834.28;;;0.82;100.00
76050;BME280;64967;50.234;19.224;2023-04-03T01:41:50;98835.25;;;0.81;100.00
76050;BME280;64967;50.234;19.224;2023-04-03T01:44:17;98841.13;;;0.75;100.00
76050;BME280;64967;50.234;19.224;2023-04-03T01:46:44;98827.09;;;0.73;100.00
76050;BME280;64967;50.234;19.224;2023-04-03T01:49:11;98837.63;;;0.75;100.00
76050;BME280;64967;50.234;19.224;2023-04-03T01:51:38;98825.72;;;0.79;100.00
76050;BME280;64967;50.234;19.224;2023-04-03T01:54:05;98838.91;;;0.80;100.00
76050;BME280;64967;50.234;19.224;2023-04-03T01:56:32;98844.22;;;0.80;100.00
76050;BME280;64967;50.234;19.224;2023-04-03T01:58:59;98838.06;;;0.80;100.00
76050;BME280;64967;50.234;19.224;2023-04-03T02:01:26;98839.44;;;0.74;100.00
76050;BME280;64967;50.234;19.224;2023-04-03T02:03:53;98830.44;;;0.66;100.00
76050;BME280;64967;50.234;19.224;2023-04-03T02:06:20;98849.63;;;0.69;100.00
76050;BME280;64967;50.234;19.224;2023-04-03T02:08:47;98844.44;;;0.68;100.00
76050;BME280;64967;50.234;19.224;2023-04-03T02:11:14;98852.41;;;0.68;100.00
76050;BME280;64967;50.234;19.224;2023-04-03T02:13:41;98855.91;;;0.68;100.00
76050;BME280;64967;50.234;19.224;2023-04-03T02:16:09;98851.31;;;0.70;100.00
76050;BME280;64967;50.234;19.224;2023-04-03T02:18:37;98837.66;;;0.54;100.00
76050;BME280;64967;50.234;19.224;2023-04-03T02:21:05;98849.47;;;0.61;100.00
76050;BME280;64967;50.234;19.224;2023-04-03T02:23:33;98867.56;;;0.67;100.00
76050;BME280;64967;50.234;19.224;2023-04-03T02:26:04;98854.50;;;0.64;100.00
76050;BME280;64967;50.234;19.224;2023-04-03T02:28:33;98862.63;;;0.63;100.00
76050;BME280;64967;50.234;19.224;2023-04-03T02:31:00;98864.47;;;0.62;100.00
76050;BME280;64967;50.234;19.224;2023-04-03T02:33:27;98849.00;;;0.56;100.00
76050;BME280;64967;50.234;19.224;2023-04-03T02:35:55;98840.00;;;0.48;100.00
76050;BME280;64967;50.234;19.224;2023-04-03T02:38:23;98856.19;;;0.65;100.00
76050;BME280;64967;50.234;19.224;2023-04-03T02:40:50;98858.84;;;0.65;100.00
76050;BME280;64967;50.234;19.224;2023-04-03T02:43:17;98862.50;;;0.64;100.00
76050;BME280;64967;50.234;19.224;2023-04-03T02:45:45;98853.47;;;0.56;100.00
76050;BME280;64967;50.234;19.224;2023-04-03T02:48:12;98860.63;;;0.55;100.00
76050;BME280;64967;50.234;19.224;2023-04-03T02:50:39;98858.69;;;0.57;100.00
76050;BME280;64967;50.234;19.224;2023-04-03T02:53:06;98847.59;;;0.52;100.00
76050;BME280;64967;50.234;19.224;2023-04-03T02:55:33;98859.66;;;0.56;100.00
76050;BME280;64967;50.234;19.224;2023-04-03T02:58:00;98857.00;;;0.56;100.00
76050;BME280;64967;50.234;19.224;2023-04-03T03:00:27;98861.00;;;0.51;100.00
76050;BME280;64967;50.234;19.224;2023-04-03T03:02:54;98869.16;;;0.49;100.00
76050;BME280;64967;50.234;19.224;2023-04-03T03:05:21;98865.25;;;0.53;100.00
76050;BME280;64967;50.234;19.224;2023-04-03T03:07:48;98871.19;;;0.45;99.91
76050;BME280;64967;50.234;19.224;2023-04-03T03:10:15;98851.09;;;0.32;98.74
76050;BME280;64967;50.234;19.224;2023-04-03T03:12:42;98869.94;;;0.40;98.88
76050;BME280;64967;50.234;19.224;2023-04-03T03:15:10;98878.31;;;0.35;98.66
76050;BME280;64967;50.234;19.224;2023-04-03T03:17:37;98877.00;;;0.30;98.36
76050;BME280;64967;50.234;19.224;2023-04-03T03:20:05;98872.91;;;0.26;100.00
76050;BME280;64967;50.234;19.224;2023-04-03T03:22:34;98865.13;;;0.13;100.00
76050;BME280;64967;50.234;19.224;2023-04-03T03:25:02;98853.59;;;0.03;100.00
76050;BME280;64967;50.234;19.224;2023-04-03T03:27:29;98878.53;;;0.12;100.00
76050;BME280;64967;50.234;19.224;2023-04-03T03:29:56;98895.41;;;0.22;100.00
76050;BME280;64967;50.234;19.224;2023-04-03T03:32:23;98882.44;;;0.08;100.00
76050;BME280;64967;50.234;19.224;2023-04-03T03:34:50;98890.03;;;0.12;100.00
76050;BME280;64967;50.234;19.224;2023-04-03T03:37:17;98893.78;;;0.10;100.00
76050;BME280;64967;50.234;19.224;2023-04-03T03:39:44;98863.56;;;-0.10;100.00
76050;BME280;64967;50.234;19.224;2023-04-03T03:42:11;98893.19;;;0.06;100.00
76050;BME280;64967;50.234;19.224;2023-04-03T03:44:38;98882.00;;;-0.09;100.00
76050;BME280;64967;50.234;19.224;2023-04-03T03:47:05;98888.91;;;-0.06;100.00
76050;BME280;64967;50.234;19.224;2023-04-03T03:49:32;98862.03;;;-0.24;100.00
76050;BME280;64967;50.234;19.224;2023-04-03T03:51:59;98888.81;;;-0.16;100.00
76050;BME280;64967;50.234;19.224;2023-04-03T03:54:26;98870.25;;;-0.27;100.00
76050;BME280;64967;50.234;19.224;2023-04-03T03:56:53;98878.78;;;-0.12;100.00
76050;BME280;64967;50.234;19.224;2023-04-03T03:59:21;98898.56;;;-0.05;100.00
76050;BME280;64967;50.234;19.224;2023-04-03T04:01:48;98900.84;;;-0.01;100.00
76050;BME280;64967;50.234;19.224;2023-04-03T04:04:15;98878.91;;;-0.14;100.00
76050;BME280;64967;50.234;19.224;2023-04-03T04:06:42;98902.06;;;-0.05;100.00
76050;BME280;64967;50.234;19.224;2023-04-03T04:09:09;98897.25;;;-0.11;100.00
76050;BME280;64967;50.234;19.224;2023-04-03T04:11:36;98899.25;;;-0.24;100.00
76050;BME280;64967;50.234;19.224;2023-04-03T04:14:03;98909.34;;;-0.18;100.00
76050;BME280;64967;50.234;19.224;2023-04-03T04:16:30;98904.19;;;-0.30;100.00
76050;BME280;64967;50.234;19.224;2023-04-03T04:18:57;98913.50;;;-0.25;100.00
76050;BME280;64967;50.234;19.224;2023-04-03T04:21:24;98924.22;;;-0.26;100.00
76050;BME280;64967;50.234;19.224;2023-04-03T04:23:52;98915.94;;;-0.33;100.00
76050;BME280;64967;50.234;19.224;2023-04-03T04:26:19;98915.94;;;-0.33;100.00
76050;BME280;64967;50.234;19.224;2023-04-03T04:28:47;98924.03;;;-0.34;100.00
76050;BME280;64967;50.234;19.224;2023-04-03T04:31:14;98924.59;;;-0.31;100.00
76050;BME280;64967;50.234;19.224;2023-04-03T04:33:41;98922.31;;;-0.35;100.00
76050;BME280;64967;50.234;19.224;2023-04-03T04:36:08;98931.28;;;-0.36;100.00
76050;BME280;64967;50.234;19.224;2023-04-03T04:38:35;98927.25;;;-0.31;100.00
76050;BME280;64967;50.234;19.224;2023-04-03T04:41:02;98924.97;;;-0.35;100.00
76050;BME280;64967;50.234;19.224;2023-04-03T04:43:29;98925.59;;;-0.43;100.00
76050;BME280;64967;50.234;19.224;2023-04-03T04:46:08;98940.31;;;-0.28;99.83
76050;BME280;64967;50.234;19.224;2023-04-03T04:48:36;98938.03;;;-0.32;99.22
76050;BME280;64967;50.234;19.224;2023-04-03T04:51:03;98934.06;;;-0.38;98.06
76050;BME280;64967;50.234;19.224;2023-04-03T04:53:30;98941.66;;;-0.33;98.58
76050;BME280;64967;50.234;19.224;2023-04-03T04:55:57;98930.19;;;-0.45;97.03
76050;BME280;64967;50.234;19.224;2023-04-03T04:58:24;98952.88;;;-0.30;95.68
76050;BME280;64967;50.234;19.224;2023-04-03T05:01:06;98961.78;;;-0.31;95.08
76050;BME280;64967;50.234;19.224;2023-04-03T05:03:34;98946.22;;;-0.35;96.46
76050;BME280;64967;50.234;19.224;2023-04-03T05:06:01;98943.09;;;-0.40;94.72
76050;BME280;64967;50.234;19.224;2023-04-03T05:08:28;98962.28;;;-0.26;94.55
76050;BME280;64967;50.234;19.224;2023-04-03T05:10:55;98959.63;;;-0.26;93.76
76050;BME280;64967;50.234;19.224;2023-04-03T05:13:22;98961.94;;;-0.32;93.14
76050;BME280;64967;50.234;19.224;2023-04-03T05:15:49;98944.25;;;-0.54;93.23
76050;BME280;64967;50.234;19.224;2023-04-03T05:18:16;98968.47;;;-0.36;92.86
76050;BME280;64967;50.234;19.224;2023-04-03T05:20:43;98970.75;;;-0.32;93.02
76050;BME280;64967;50.234;19.224;2023-04-03T05:23:11;98965.09;;;-0.38;94.19
76050;BME280;64967;50.234;19.224;2023-04-03T05:25:38;98961.09;;;-0.44;94.17
76050;BME280;64967;50.234;19.224;2023-04-03T05:28:06;98981.59;;;-0.24;93.67
76050;BME280;64967;50.234;19.224;2023-04-03T05:30:33;98975.81;;;-0.29;94.81
76050;BME280;64967;50.234;19.224;2023-04-03T05:33:00;98974.97;;;-0.40;94.37
76050;BME280;64967;50.234;19.224;2023-04-03T05:35:27;98960.41;;;-0.46;95.18
76050;BME280;64967;50.234;19.224;2023-04-03T05:37:55;98985.97;;;-0.23;94.59
76050;BME280;64967;50.234;19.224;2023-04-03T05:40:22;98995.47;;;-0.20;93.82
76050;BME280;64967;50.234;19.224;2023-04-03T05:42:49;98982.34;;;-0.33;91.77
76050;BME280;64967;50.234;19.224;2023-04-03T05:45:16;98983.31;;;-0.34;92.63
76050;BME280;64967;50.234;19.224;2023-04-03T05:47:43;98985.00;;;-0.33;94.40
76050;BME280;64967;50.234;19.224;2023-04-03T05:50:10;98986.06;;;-0.35;93.42
76050;BME280;64967;50.234;19.224;2023-04-03T05:52:39;98991.66;;;-0.27;93.08
76050;BME280;64967;50.234;19.224;2023-04-03T05:55:07;98985.47;;;-0.39;93.96
76050;BME280;64967;50.234;19.224;2023-04-03T05:57:34;98998.66;;;-0.37;94.57
76050;BME280;64967;50.234;19.224;2023-04-03T06:00:06;98989.94;;;-0.28;93.89
76050;BME280;64967;50.234;19.224;2023-04-03T06:02:34;98975.69;;;-0.27;93.05
76050;BME280;64967;50.234;19.224;2023-04-03T06:05:02;99001.38;;;-0.17;92.31
76050;BME280;64967;50.234;19.224;2023-04-03T06:07:30;99005.47;;;-0.13;93.52
76050;BME280;64967;50.234;19.224;2023-04-03T06:09:57;98999.94;;;-0.10;92.99
76050;BME280;64967;50.234;19.224;2023-04-03T06:12:24;98995.22;;;-0.06;93.20
76050;BME280;64967;50.234;19.224;2023-04-03T06:14:52;99014.13;;;0.12;91.93
76050;BME280;64967;50.234;19.224;2023-04-03T06:17:19;99009.03;;;0.20;91.70
76050;BME280;64967;50.234;19.224;2023-04-03T06:19:47;99008.25;;;0.29;90.77
76050;BME280;64967;50.234;19.224;2023-04-03T06:22:14;99005.41;;;0.21;91.06
76050;BME280;64967;50.234;19.224;2023-04-03T06:24:42;99003.59;;;0.21;92.14
76050;BME280;64967;50.234;19.224;2023-04-03T06:27:10;98973.56;;;-0.02;91.08
76050;BME280;64967;50.234;19.224;2023-04-03T06:29:38;99017.69;;;0.33;90.00
76050;BME280;64967;50.234;19.224;2023-04-03T06:32:05;99022.03;;;0.34;91.16
76050;BME280;64967;50.234;19.224;2023-04-03T06:34:32;99013.41;;;0.10;89.13
76050;BME280;64967;50.234;19.224;2023-04-03T06:37:00;99011.72;;;0.09;88.92
76050;BME280;64967;50.234;19.224;2023-04-03T06:39:27;99022.00;;;0.02;87.76
76050;BME280;64967;50.234;19.224;2023-04-03T06:41:54;99030.34;;;-0.03;86.41
76050;BME280;64967;50.234;19.224;2023-04-03T06:44:21;99013.66;;;0.07;87.99
76050;BME280;64967;50.234;19.224;2023-04-03T06:46:48;99035.81;;;0.28;87.52
76050;BME280;64967;50.234;19.224;2023-04-03T06:49:15;99032.94;;;0.20;86.55
76050;BME280;64967;50.234;19.224;2023-04-03T06:51:43;99034.91;;;0.18;85.34
76050;BME280;64967;50.234;19.224;2023-04-03T06:54:09;99022.00;;;0.13;87.03
76050;BME280;64967;50.234;19.224;2023-04-03T06:56:37;99034.34;;;0.03;86.38
76050;BME280;64967;50.234;19.224;2023-04-03T06:59:04;99031.47;;;-0.05;86.40
76050;BME280;64967;50.234;19.224;2023-04-03T07:01:31;99044.38;;;-0.01;85.30
76050;BME280;64967;50.234;19.224;2023-04-03T07:03:58;99048.31;;;0.05;87.14
76050;BME280;64967;50.234;19.224;2023-04-03T07:06:26;99053.56;;;-0.05;84.52
76050;BME280;64967;50.234;19.224;2023-04-03T07:08:57;99010.88;;;-0.46;86.11
76050;BME280;64967;50.234;19.224;2023-04-03T07:11:24;99042.56;;;-0.11;86.82
76050;BME280;64967;50.234;19.224;2023-04-03T07:13:52;99063.69;;;0.02;86.42
76050;BME280;64967;50.234;19.224;2023-04-03T07:16:20;99066.00;;;-0.05;85.91
76050;BME280;64967;50.234;19.224;2023-04-03T07:18:47;99057.41;;;-0.09;85.74
76050;BME280;64967;50.234;19.224;2023-04-03T07:21:14;99070.97;;;-0.01;85.32
76050;BME280;64967;50.234;19.224;2023-04-03T07:23:41;99079.63;;;0.02;85.42
76050;BME280;64967;50.234;19.224;2023-04-03T07:26:08;99090.28;;;0.02;86.21
76050;BME280;64967;50.234;19.224;2023-04-03T07:28:36;99070.00;;;-0.22;85.88
76050;BME280;64967;50.234;19.224;2023-04-03T07:31:06;99092.97;;;-0.10;86.42
76050;BME280;64967;50.234;19.224;2023-04-03T07:33:36;99091.72;;;-0.17;83.65
76050;BME280;64967;50.234;19.224;2023-04-03T07:36:05;99091.88;;;-0.29;83.81
76050;BME280;64967;50.234;19.224;2023-04-03T07:38:34;99074.34;;;-0.43;83.26
76050;BME280;64967;50.234;19.224;2023-04-03T07:41:02;99092.47;;;-0.26;83.18
76050;BME280;64967;50.234;19.224;2023-04-03T07:43:30;99094.41;;;-0.06;83.96
76050;BME280;64967;50.234;19.224;2023-04-03T07:45:57;99093.06;;;-0.11;81.35
76050;BME280;64967;50.234;19.224;2023-04-03T07:48:25;99089.78;;;-0.04;84.01
76050;BME280;64967;50.234;19.224;2023-04-03T07:50:53;99054.06;;;-0.11;83.35
76050;BME280;64967;50.234;19.224;2023-04-03T07:53:20;99087.00;;;0.09;81.72
76050;BME280;64967;50.234;19.224;2023-04-03T07:55:48;99088.09;;;0.07;81.74
76050;BME280;64967;50.234;19.224;2023-04-03T07:58:17;99074.56;;;-0.02;80.82
76050;BME280;64967;50.234;19.224;2023-04-03T08:00:45;99095.69;;;0.22;80.03
76050;BME280;64967;50.234;19.224;2023-04-03T08:03:12;99095.06;;;0.19;80.26
76050;BME280;64967;50.234;19.224;2023-04-03T08:05:41;99095.22;;;0.17;81.48
76050;BME280;64967;50.234;19.224;2023-04-03T08:08:11;99087.59;;;0.13;78.35
76050;BME280;64967;50.234;19.224;2023-04-03T08:10:38;99091.19;;;0.34;78.93
76050;BME280;64967;50.234;19.224;2023-04-03T08:13:06;99097.19;;;0.47;78.89
76050;BME280;64967;50.234;19.224;2023-04-03T08:15:33;99098.88;;;0.48;79.20
76050;BME280;64967;50.234;19.224;2023-04-03T08:18:01;99099.63;;;0.39;76.65
76050;BME280;64967;50.234;19.224;2023-04-03T08:20:28;99091.00;;;0.47;77.03
76050;BME280;64967;50.234;19.224;2023-04-03T08:22:55;99087.22;;;0.60;78.72
76050;BME280;64967;50.234;19.224;2023-04-03T08:25:24;99100.06;;;0.55;76.70
76050;BME280;64967;50.234;19.224;2023-04-03T08:27:51;99098.53;;;0.73;75.14
76050;BME280;64967;50.234;19.224;2023-04-03T08:30:18;99081.56;;;0.85;73.62
76050;BME280;64967;50.234;19.224;2023-04-03T08:32:46;99097.31;;;0.77;73.36
76050;BME280;64967;50.234;19.224;2023-04-03T08:35:13;99099.47;;;0.83;74.15
76050;BME280;64967;50.234;19.224;2023-04-03T08:37:40;99101.28;;;1.04;74.02
76050;BME280;64967;50.234;19.224;2023-04-03T08:40:14;99106.63;;;1.04;72.62
76050;BME280;64967;50.234;19.224;2023-04-03T08:42:54;99111.28;;;0.90;70.26
76050;BME280;64967;50.234;19.224;2023-04-03T08:48:08;99109.66;;;0.99;70.12
76050;BME280;64967;50.234;19.224;2023-04-03T08:50:43;99109.34;;;1.13;70.66
76050;BME280;64967;50.234;19.224;2023-04-03T08:53:19;99120.41;;;1.09;68.00
76050;BME280;64967;50.234;19.224;2023-04-03T08:55:50;99125.28;;;1.24;72.37
76050;BME280;64967;50.234;19.224;2023-04-03T09:01:03;99126.50;;;1.00;68.79
76050;BME280;64967;50.234;19.224;2023-04-03T09:03:35;99049.56;;;0.76;69.12
76050;BME280;64967;50.234;19.224;2023-04-03T09:06:27;99125.88;;;1.28;68.24
76050;BME280;64967;50.234;19.224;2023-04-03T09:09:13;99124.72;;;1.21;69.94
76050;BME280;64967;50.234;19.224;2023-04-03T09:12:03;99126.72;;;1.28;68.57
76050;BME280;64967;50.234;19.224;2023-04-03T09:20:09;99129.97;;;1.53;64.45
76050;BME280;64967;50.234;19.224;2023-04-03T09:22:41;99125.09;;;1.37;65.30
76050;BME280;64967;50.234;19.224;2023-04-03T09:25:25;99138.81;;;1.32;66.26
76050;BME280;64967;50.234;19.224;2023-04-03T09:27:56;99135.69;;;1.48;69.30
76050;BME280;64967;50.234;19.224;2023-04-03T09:30:25;99135.41;;;1.51;68.14
76050;BME280;64967;50.234;19.224;2023-04-03T09:32:55;99132.38;;;1.35;64.89
76050;BME280;64967;50.234;19.224;2023-04-03T09:35:28;99144.31;;;1.41;64.97
76050;BME280;64967;50.234;19.224;2023-04-03T09:40:48;99140.59;;;2.04;64.70
76050;BME280;64967;50.234;19.224;2023-04-03T09:45:43;99131.72;;;2.43;61.92
76050;BME280;64967;50.234;19.224;2023-04-03T09:55:55;99130.09;;;3.38;60.89
76050;BME280;64967;50.234;19.224;2023-04-03T10:01:28;99144.19;;;3.11;62.82
76050;BME280;64967;50.234;19.224;2023-04-03T10:04:07;99155.38;;;2.67;61.79
76050;BME280;64967;50.234;19.224;2023-04-03T10:06:39;99132.94;;;2.79;60.20
76050;BME280;64967;50.234;19.224;2023-04-03T10:12:09;99137.72;;;3.14;56.45
76050;BME280;64967;50.234;19.224;2023-04-03T10:15:00;99133.66;;;3.10;55.19
76050;BME280;64967;50.234;19.224;2023-04-03T10:26:12;99143.06;;;2.95;54.70
76050;BME280;64967;50.234;19.224;2023-04-03T10:29:04;99161.53;;;2.58;57.24
76050;BME280;64967;50.234;19.224;2023-04-03T10:31:37;99158.53;;;2.91;58.04
76050;BME280;64967;50.234;19.224;2023-04-03T10:34:27;99148.84;;;3.09;53.55
76050;BME280;64967;50.234;19.224;2023-04-03T10:37:34;99157.41;;;3.13;53.93
76050;BME280;64967;50.234;19.224;2023-04-03T10:45:49;99148.28;;;3.91;54.07
76050;BME280;64967;50.234;19.224;2023-04-03T10:49:05;99136.00;;;3.98;52.14
76050;BME280;64967;50.234;19.224;2023-04-03T10:51:42;99129.25;;;3.94;53.61
76050;BME280;64967;50.234;19.224;2023-04-03T10:54:24;99130.47;;;3.63;50.58
76050;BME280;64967;50.234;19.224;2023-04-03T10:56:54;99126.56;;;3.47;53.57
76050;BME280;64967;50.234;19.224;2023-04-03T10:59:52;99139.22;;;3.65;51.76
76050;BME280;64967;50.234;19.224;2023-04-03T11:02:37;99148.84;;;3.19;51.84
76050;BME280;64967;50.234;19.224;2023-04-03T11:07:49;99131.50;;;2.75;55.22
76050;BME280;64967;50.234;19.224;2023-04-03T11:10:37;99147.94;;;2.70;55.35
76050;BME280;64967;50.234;19.224;2023-04-03T11:13:14;99145.59;;;2.87;56.22
76050;BME280;64967;50.234;19.224;2023-04-03T11:15:43;99122.75;;;2.44;55.52
76050;BME280;64967;50.234;19.224;2023-04-03T11:18:26;99150.63;;;2.61;55.27
76050;BME280;64967;50.234;19.224;2023-04-03T11:21:19;99140.34;;;2.66;56.47
76050;BME280;64967;50.234;19.224;2023-04-03T11:23:49;99123.06;;;2.60;56.07
76050;BME280;64967;50.234;19.224;2023-04-03T11:26:21;99130.88;;;2.33;57.02
76050;BME280;64967;50.234;19.224;2023-04-03T11:28:56;99133.84;;;2.49;56.28
76050;BME280;64967;50.234;19.224;2023-04-03T11:39:57;99117.69;;;3.47;53.67
76050;BME280;64967;50.234;19.224;2023-04-03T11:42:37;99110.59;;;3.75;53.83
76050;BME280;64967;50.234;19.224;2023-04-03T11:45:29;99117.84;;;3.55;49.84
76050;BME280;64967;50.234;19.224;2023-04-03T11:53:34;99109.34;;;4.06;49.37
76050;BME280;64967;50.234;19.224;2023-04-03T11:56:04;99107.75;;;4.23;48.66
76050;BME280;64967;50.234;19.224;2023-04-03T11:58:34;99103.56;;;4.38;48.63
76050;BME280;64967;50.234;19.224;2023-04-03T12:01:06;99103.00;;;4.62;50.68
76050;BME280;64967;50.234;19.224;2023-04-03T12:04:03;99107.06;;;4.83;50.47
76050;BME280;64967;50.234;19.224;2023-04-03T12:09:04;99090.97;;;4.66;51.89
76050;BME280;64967;50.234;19.224;2023-04-03T12:11:48;99092.75;;;4.02;55.15
76050;BME280;64967;50.234;19.224;2023-04-03T12:14:16;99105.56;;;4.36;48.66
76050;BME280;64967;50.234;19.224;2023-04-03T12:16:47;99110.91;;;4.63;49.64
76050;BME280;64967;50.234;19.224;2023-04-03T12:35:05;99099.88;;;3.84;46.85
76050;BME280;64967;50.234;19.224;2023-04-03T12:40:25;99104.75;;;3.42;48.71
76050;BME280;64967;50.234;19.224;2023-04-03T12:43:02;99100.88;;;2.98;47.19
76050;BME280;64967;50.234;19.224;2023-04-03T12:46:03;99102.84;;;2.87;46.87
76050;BME280;64967;50.234;19.224;2023-04-03T12:48:37;99100.31;;;2.56;45.86
76050;BME280;64967;50.234;19.224;2023-04-03T12:51:05;99097.66;;;2.85;48.29
76050;BME280;64967;50.234;19.224;2023-04-03T12:53:35;99096.94;;;3.12;47.56
76050;BME280;64967;50.234;19.224;2023-04-03T12:58:53;99092.13;;;3.25;47.73
76050;BME280;64967;50.234;19.224;2023-04-03T13:01:24;99095.22;;;3.30;47.05
76050;BME280;64967;50.234;19.224;2023-04-03T13:03:57;99085.88;;;3.63;48.58
76050;BME280;64967;50.234;19.224;2023-04-03T13:06:33;99092.25;;;3.89;50.27
76050;BME280;64967;50.234;19.224;2023-04-03T13:09:02;99082.31;;;4.36;49.29
76050;BME280;64967;50.234;19.224;2023-04-03T13:11:36;99069.81;;;4.27;48.76
76050;BME280;64967;50.234;19.224;2023-04-03T13:14:15;99080.94;;;4.05;48.08
76050;BME280;64967;50.234;19.224;2023-04-03T13:19:24;99094.38;;;3.86;49.73
76050;BME280;64967;50.234;19.224;2023-04-03T13:22:00;99093.19;;;3.98;51.64
76050;BME280;64967;50.234;19.224;2023-04-03T13:24:29;99104.03;;;3.96;51.83
76050;BME280;64967;50.234;19.224;2023-04-03T13:26:58;99103.00;;;3.70;50.36
76050;BME280;64967;50.234;19.224;2023-04-03T13:29:30;99096.78;;;3.79;47.82
76050;BME280;64967;50.234;19.224;2023-04-03T13:31:59;99091.59;;;3.78;49.29
76050;BME280;64967;50.234;19.224;2023-04-03T13:34:32;99098.16;;;3.93;46.41
76050;BME280;64967;50.234;19.224;2023-04-03T13:37:03;99090.03;;;4.39;45.16
76050;BME280;64967;50.234;19.224;2023-04-03T13:39:36;99110.31;;;4.60;44.34
76050;BME280;64967;50.234;19.224;2023-04-03T13:42:23;99112.22;;;4.77;48.63
76050;BME280;64967;50.234;19.224;2023-04-03T13:45:17;99101.59;;;4.40;46.47
76050;BME280;64967;50.234;19.224;2023-04-03T13:47:45;99100.47;;;4.33;44.38
76050;BME280;64967;50.234;19.224;2023-04-03T13:50:23;99120.47;;;4.38;47.82
76050;BME280;64967;50.234;19.224;2023-04-03T13:53:02;99104.19;;;4.32;48.42
76050;BME280;64967;50.234;19.224;2023-04-03T13:55:33;99105.34;;;4.47;47.75
76050;BME280;64967;50.234;19.224;2023-04-03T13:58:25;99111.88;;;4.62;47.37
76050;BME280;64967;50.234;19.224;2023-04-03T14:01:41;99121.63;;;4.81;46.77
76050;BME280;64967;50.234;19.224;2023-04-03T14:04:01;99114.88;;;4.77;50.01
76050;BME280;64967;50.234;19.224;2023-04-03T14:06:36;99110.38;;;4.05;46.63
76050;BME280;64967;50.234;19.224;2023-04-03T14:09:03;99110.09;;;3.98;47.71
76050;BME280;64967;50.234;19.224;2023-04-03T14:11:30;99106.44;;;3.99;50.28
76050;BME280;64967;50.234;19.224;2023-04-03T14:14:01;99110.97;;;4.26;49.06
76050;BME280;64967;50.234;19.224;2023-04-03T14:16:33;99120.38;;;4.30;47.19
76050;BME280;64967;50.234;19.224;2023-04-03T14:19:03;99114.53;;;4.44;46.29
76050;BME280;64967;50.234;19.224;2023-04-03T14:21:30;99117.16;;;4.54;45.92
76050;BME280;64967;50.234;19.224;2023-04-03T14:23:57;99117.47;;;4.69;46.27
76050;BME280;64967;50.234;19.224;2023-04-03T14:26:24;99104.53;;;4.82;47.63
76050;BME280;64967;50.234;19.224;2023-04-03T14:28:54;99109.59;;;4.85;47.01
76050;BME280;64967;50.234;19.224;2023-04-03T14:31:23;99110.97;;;4.26;45.51
76050;BME280;64967;50.234;19.224;2023-04-03T14:33:50;99117.06;;;4.19;47.35
76050;BME280;64967;50.234;19.224;2023-04-03T14:36:20;99115.19;;;4.19;47.66
76050;BME280;64967;50.234;19.224;2023-04-03T14:38:49;99105.59;;;3.99;47.10
76050;BME280;64967;50.234;19.224;2023-04-03T14:41:20;99113.84;;;4.05;48.81
76050;BME280;64967;50.234;19.224;2023-04-03T14:43:48;99111.38;;;3.94;47.00
76050;BME280;64967;50.234;19.224;2023-04-03T14:46:38;99119.31;;;3.86;46.43
76050;BME280;64967;50.234;19.224;2023-04-03T14:49:25;99115.97;;;3.65;47.87